Saturday, August 02, 2014
02:35 UTC
  |  Log In   |  Register Free
Airport Search:

Skyway Estates Airport
(60G)

Skyway Estates Airport Diagram
No Airport Diagram Available

FAA data valid effective July 24, 2014 until September 18, 2014 (unless otherwise noted).

 
 
 
 
 
 
 
 
 
 
 
 
 
 

Current Aviation Weather for Skyway Estates Airport (60G)

The most recent METAR observation for KFPK was updated at: 1835 UTC
METAR Summary (Translated METAR)
KFPK
281835Z AUTO 30007KT 10SM SCT031 SCT044 OVC060 20/12 A2995 RMK AO2 T02000119
KLAN
(15.8 nm NE from KFPK)
281753Z 34009KT 10SM FEW026 OVC060 18/11 A2997 RMK AO2 SLP147 T01830111 10189 20156 50005
TAF Summary (Translated TAF)
KLAN
(15.8 nm NE from KFPK)
020051Z 0201/0224 24003KT P6SM SCT050 BKN100 FM020900 00000KT 3/4SM BR SKC FM021300 30003KT P6SM SKC FM021800 32005KT P6SM VCTS BKN040CB
  Airport Weather Conditions for 60G

Current weather conditions are
not available for 60G


The nearest NOAA weather station
is at FPK, (7.1 nm SW from 60G)
  
 Current Weather at FPK
61° F
Fair
Southwest winds at 4.6 mph
FPK NOAA Radar

Pressure: 30.08 in
Humidity: 89%
Wind: Southwest at 4.6 MPH (4 KT)
Dew Point: 57.2°F
Visibility: 10.00 mi


Airport Weather Forecast for 60G

Translated METAR and TAF for KFPK
Translated METAR for KFPK (0228 UTC 02 August 2014)
found at http://aviationweather.gov/adds/metars/
 
METAR text: KFPK 020215Z AUTO 00000KT 10SM CLR 16/14 A3010 RMK AO2 P0002 T01580141
Conditions at: KFPK (CHARLOTTE , MI, US) observed 0215 UTC 02 August 2014
Temperature: 15.8°C (60°F)
Dewpoint: 14.1°C (57°F) [RH = 90%]
Pressure (altimeter): 30.10 inches Hg (1019.4 mb)
Winds: calm
Visibility: 10 or more miles (16+ km)
Ceiling: at least 12,000 feet AGL
Clouds: sky clear below 12,000 feet AGL
Weather: automated observation with no human augmentation;
there may or may not be significant weather present at this time
Translated TAF for KFPK

There is no translated TAF available for this airport

Find All Airport Services Find A Hotel Find A Rental Car Find A Golf Course Find A Restaurant $100 Hamburger



FBO's on the Field
FBO Company Facility Photos Services Transportation Aviation Fuel Prices: Prices include tax
Catering Weather Repair Courtesy Rental Type 100LL JetA JetA+ MOGAS 8087
 
Add another FBO Facility Photos Catering Weather Repair Courtesy Rental Type 100LL JetA JetA+ MOGAS 8087
Services Transportation Aviation Fuel Prices: Prices include tax
There are no FBO's currently reporting fuel at 60G. List your FBO now


GlobalAir.com Airport Resource Center model-print
model-print
model-print
model-print